sensor_id;sensor_type;location;lat;lon;timestamp;P1;durP1;ratioP1;P2;durP2;ratioP2
41514;SDS011;27247;48.020;16.720;2023-11-19T00:01:18;15.33;;;8.40;;
41514;SDS011;27247;48.020;16.720;2023-11-19T00:05:29;14.93;;;8.93;;
41514;SDS011;27247;48.020;16.720;2023-11-19T00:09:40;16.25;;;8.65;;
41514;SDS011;27247;48.020;16.720;2023-11-19T00:13:50;17.17;;;9.23;;
41514;SDS011;27247;48.020;16.720;2023-11-19T00:18:00;17.35;;;10.85;;
41514;SDS011;27247;48.020;16.720;2023-11-19T00:22:14;13.40;;;8.40;;
41514;SDS011;27247;48.020;16.720;2023-11-19T00:26:24;13.50;;;8.63;;
41514;SDS011;27247;48.020;16.720;2023-11-19T00:30:35;20.70;;;9.33;;
41514;SDS011;27247;48.020;16.720;2023-11-19T00:34:45;13.53;;;8.77;;
41514;SDS011;27247;48.020;16.720;2023-11-19T00:38:57;15.60;;;9.40;;
41514;SDS011;27247;48.020;16.720;2023-11-19T00:43:08;20.10;;;10.10;;
41514;SDS011;27247;48.020;16.720;2023-11-19T00:47:18;17.63;;;10.32;;
41514;SDS011;27247;48.020;16.720;2023-11-19T00:51:31;19.27;;;11.27;;
41514;SDS011;27247;48.020;16.720;2023-11-19T00:55:42;21.23;;;11.05;;
41514;SDS011;27247;48.020;16.720;2023-11-19T00:59:52;21.70;;;11.90;;
41514;SDS011;27247;48.020;16.720;2023-11-19T01:04:02;20.80;;;11.00;;
41514;SDS011;27247;48.020;16.720;2023-11-19T01:08:13;16.73;;;9.38;;
41514;SDS011;27247;48.020;16.720;2023-11-19T01:12:23;17.43;;;10.60;;
41514;SDS011;27247;48.020;16.720;2023-11-19T01:16:33;17.13;;;8.87;;
41514;SDS011;27247;48.020;16.720;2023-11-19T01:20:43;15.00;;;8.80;;
41514;SDS011;27247;48.020;16.720;2023-11-19T01:24:54;12.80;;;8.03;;
41514;SDS011;27247;48.020;16.720;2023-11-19T01:29:04;13.65;;;7.32;;
41514;SDS011;27247;48.020;16.720;2023-11-19T01:33:14;15.40;;;8.20;;
41514;SDS011;27247;48.020;16.720;2023-11-19T01:37:25;16.77;;;8.50;;
41514;SDS011;27247;48.020;16.720;2023-11-19T01:41:35;14.37;;;8.73;;
41514;SDS011;27247;48.020;16.720;2023-11-19T01:45:46;15.65;;;8.02;;
41514;SDS011;27247;48.020;16.720;2023-11-19T01:49:56;12.95;;;7.22;;
41514;SDS011;27247;48.020;16.720;2023-11-19T01:54:07;15.85;;;8.05;;
41514;SDS011;27247;48.020;16.720;2023-11-19T01:58:18;14.80;;;7.38;;
41514;SDS011;27247;48.020;16.720;2023-11-19T02:02:29;15.48;;;8.32;;
41514;SDS011;27247;48.020;16.720;2023-11-19T02:06:40;15.13;;;8.52;;
41514;SDS011;27247;48.020;16.720;2023-11-19T02:10:52;13.45;;;7.80;;
41514;SDS011;27247;48.020;16.720;2023-11-19T02:15:05;14.90;;;8.70;;
41514;SDS011;27247;48.020;16.720;2023-11-19T02:19:16;12.82;;;7.80;;
41514;SDS011;27247;48.020;16.720;2023-11-19T02:23:29;14.60;;;8.00;;
41514;SDS011;27247;48.020;16.720;2023-11-19T02:31:56;15.95;;;8.50;;
41514;SDS011;27247;48.020;16.720;2023-11-19T02:36:07;17.40;;;9.67;;
41514;SDS011;27247;48.020;16.720;2023-11-19T02:40:18;17.80;;;10.10;;
41514;SDS011;27247;48.020;16.720;2023-11-19T02:44:29;17.57;;;9.87;;
41514;SDS011;27247;48.020;16.720;2023-11-19T02:48:40;14.73;;;9.55;;
41514;SDS011;27247;48.020;16.720;2023-11-19T02:52:52;15.95;;;8.95;;
41514;SDS011;27247;48.020;16.720;2023-11-19T02:57:06;16.92;;;9.55;;
41514;SDS011;27247;48.020;16.720;2023-11-19T03:01:22;14.95;;;8.57;;
41514;SDS011;27247;48.020;16.720;2023-11-19T03:05:39;17.45;;;9.40;;
41514;SDS011;27247;48.020;16.720;2023-11-19T03:09:50;15.45;;;9.23;;
41514;SDS011;27247;48.020;16.720;2023-11-19T03:14:01;15.53;;;8.93;;
41514;SDS011;27247;48.020;16.720;2023-11-19T03:18:12;19.35;;;9.23;;
41514;SDS011;27247;48.020;16.720;2023-11-19T03:22:23;16.15;;;9.85;;
41514;SDS011;27247;48.020;16.720;2023-11-19T03:26:34;13.98;;;8.23;;
41514;SDS011;27247;48.020;16.720;2023-11-19T03:30:45;15.82;;;7.97;;
41514;SDS011;27247;48.020;16.720;2023-11-19T03:34:55;14.23;;;8.57;;
41514;SDS011;27247;48.020;16.720;2023-11-19T03:39:05;12.45;;;6.53;;
41514;SDS011;27247;48.020;16.720;2023-11-19T03:43:16;13.77;;;7.30;;
41514;SDS011;27247;48.020;16.720;2023-11-19T03:47:26;11.93;;;7.50;;
41514;SDS011;27247;48.020;16.720;2023-11-19T03:51:37;10.82;;;7.10;;
41514;SDS011;27247;48.020;16.720;2023-11-19T03:55:47;12.98;;;8.20;;
41514;SDS011;27247;48.020;16.720;2023-11-19T04:00:00;11.98;;;7.20;;
41514;SDS011;27247;48.020;16.720;2023-11-19T04:04:13;11.63;;;7.43;;
41514;SDS011;27247;48.020;16.720;2023-11-19T04:08:24;11.82;;;7.05;;
41514;SDS011;27247;48.020;16.720;2023-11-19T04:12:35;14.23;;;7.33;;
41514;SDS011;27247;48.020;16.720;2023-11-19T04:16:45;16.10;;;7.97;;
41514;SDS011;27247;48.020;16.720;2023-11-19T04:20:56;15.38;;;8.82;;
41514;SDS011;27247;48.020;16.720;2023-11-19T04:25:07;14.73;;;9.00;;
41514;SDS011;27247;48.020;16.720;2023-11-19T04:29:17;12.98;;;8.23;;
41514;SDS011;27247;48.020;16.720;2023-11-19T04:33:28;15.20;;;8.32;;
41514;SDS011;27247;48.020;16.720;2023-11-19T04:37:38;16.37;;;9.30;;
41514;SDS011;27247;48.020;16.720;2023-11-19T04:41:49;15.70;;;8.82;;
41514;SDS011;27247;48.020;16.720;2023-11-19T04:46:03;15.13;;;9.05;;
41514;SDS011;27247;48.020;16.720;2023-11-19T04:50:14;14.77;;;8.63;;
41514;SDS011;27247;48.020;16.720;2023-11-19T04:54:24;16.57;;;8.80;;
41514;SDS011;27247;48.020;16.720;2023-11-19T04:58:34;14.82;;;8.70;;
41514;SDS011;27247;48.020;16.720;2023-11-19T05:02:47;15.00;;;8.90;;
41514;SDS011;27247;48.020;16.720;2023-11-19T05:06:57;14.55;;;9.20;;
41514;SDS011;27247;48.020;16.720;2023-11-19T05:11:07;15.20;;;8.27;;
41514;SDS011;27247;48.020;16.720;2023-11-19T05:15:20;18.17;;;9.88;;
41514;SDS011;27247;48.020;16.720;2023-11-19T05:19:30;18.27;;;8.90;;
41514;SDS011;27247;48.020;16.720;2023-11-19T05:23:40;14.87;;;9.13;;
41514;SDS011;27247;48.020;16.720;2023-11-19T05:27:52;17.00;;;8.32;;
41514;SDS011;27247;48.020;16.720;2023-11-19T05:32:02;15.15;;;8.65;;
41514;SDS011;27247;48.020;16.720;2023-11-19T05:36:12;15.90;;;8.15;;
41514;SDS011;27247;48.020;16.720;2023-11-19T05:40:23;14.10;;;8.57;;
41514;SDS011;27247;48.020;16.720;2023-11-19T05:44:33;11.93;;;7.55;;
41514;SDS011;27247;48.020;16.720;2023-11-19T05:48:43;12.37;;;7.57;;
41514;SDS011;27247;48.020;16.720;2023-11-19T05:52:56;13.57;;;7.45;;
41514;SDS011;27247;48.020;16.720;2023-11-19T05:57:06;13.10;;;7.57;;
41514;SDS011;27247;48.020;16.720;2023-11-19T06:01:20;11.40;;;7.10;;
41514;SDS011;27247;48.020;16.720;2023-11-19T06:05:31;15.02;;;8.73;;
41514;SDS011;27247;48.020;16.720;2023-11-19T06:09:41;15.88;;;9.32;;
41514;SDS011;27247;48.020;16.720;2023-11-19T06:13:52;13.75;;;8.23;;
41514;SDS011;27247;48.020;16.720;2023-11-19T06:18:03;18.42;;;8.77;;
41514;SDS011;27247;48.020;16.720;2023-11-19T06:22:13;14.27;;;8.70;;
41514;SDS011;27247;48.020;16.720;2023-11-19T06:26:24;16.10;;;9.23;;
41514;SDS011;27247;48.020;16.720;2023-11-19T06:30:34;18.75;;;9.68;;
41514;SDS011;27247;48.020;16.720;2023-11-19T06:34:46;19.85;;;10.38;;
41514;SDS011;27247;48.020;16.720;2023-11-19T06:38:56;15.93;;;8.70;;
41514;SDS011;27247;48.020;16.720;2023-11-19T06:43:06;15.43;;;9.40;;
41514;SDS011;27247;48.020;16.720;2023-11-19T06:47:19;16.42;;;9.77;;
41514;SDS011;27247;48.020;16.720;2023-11-19T06:51:29;17.95;;;10.40;;
41514;SDS011;27247;48.020;16.720;2023-11-19T06:55:39;19.88;;;11.02;;
41514;SDS011;27247;48.020;16.720;2023-11-19T06:59:50;16.63;;;10.15;;
41514;SDS011;27247;48.020;16.720;2023-11-19T07:04:01;20.33;;;10.40;;
41514;SDS011;27247;48.020;16.720;2023-11-19T07:08:17;20.38;;;10.63;;
41514;SDS011;27247;48.020;16.720;2023-11-19T07:12:28;21.13;;;11.13;;
41514;SDS011;27247;48.020;16.720;2023-11-19T07:16:38;20.42;;;11.40;;
41514;SDS011;27247;48.020;16.720;2023-11-19T07:20:49;19.37;;;11.10;;
41514;SDS011;27247;48.020;16.720;2023-11-19T07:24:59;21.23;;;11.13;;
41514;SDS011;27247;48.020;16.720;2023-11-19T07:29:09;20.60;;;12.00;;
41514;SDS011;27247;48.020;16.720;2023-11-19T07:33:20;20.63;;;10.48;;
41514;SDS011;27247;48.020;16.720;2023-11-19T07:37:30;22.48;;;11.18;;
41514;SDS011;27247;48.020;16.720;2023-11-19T07:41:41;19.20;;;11.20;;
41514;SDS011;27247;48.020;16.720;2023-11-19T07:45:51;21.55;;;12.25;;
41514;SDS011;27247;48.020;16.720;2023-11-19T07:50:01;20.83;;;10.80;;
41514;SDS011;27247;48.020;16.720;2023-11-19T07:54:12;22.85;;;12.13;;
41514;SDS011;27247;48.020;16.720;2023-11-19T07:58:23;28.25;;;13.02;;
41514;SDS011;27247;48.020;16.720;2023-11-19T08:02:34;21.23;;;11.40;;
41514;SDS011;27247;48.020;16.720;2023-11-19T08:06:44;23.63;;;12.20;;
41514;SDS011;27247;48.020;16.720;2023-11-19T08:10:56;27.98;;;13.05;;
41514;SDS011;27247;48.020;16.720;2023-11-19T08:15:06;21.67;;;12.35;;
41514;SDS011;27247;48.020;16.720;2023-11-19T08:19:17;21.58;;;12.30;;
41514;SDS011;27247;48.020;16.720;2023-11-19T08:23:28;24.35;;;12.30;;
41514;SDS011;27247;48.020;16.720;2023-11-19T08:27:38;21.80;;;12.02;;
41514;SDS011;27247;48.020;16.720;2023-11-19T08:31:49;22.75;;;12.43;;
41514;SDS011;27247;48.020;16.720;2023-11-19T08:35:59;21.13;;;11.45;;
41514;SDS011;27247;48.020;16.720;2023-11-19T08:40:10;21.52;;;12.55;;
41514;SDS011;27247;48.020;16.720;2023-11-19T08:44:22;22.20;;;12.50;;
41514;SDS011;27247;48.020;16.720;2023-11-19T08:48:32;24.08;;;12.60;;
41514;SDS011;27247;48.020;16.720;2023-11-19T08:52:42;18.87;;;11.37;;
41514;SDS011;27247;48.020;16.720;2023-11-19T08:56:53;24.17;;;12.67;;
41514;SDS011;27247;48.020;16.720;2023-11-19T09:01:03;25.35;;;12.98;;
41514;SDS011;27247;48.020;16.720;2023-11-19T09:05:14;24.88;;;12.57;;
41514;SDS011;27247;48.020;16.720;2023-11-19T09:09:24;20.20;;;12.77;;
41514;SDS011;27247;48.020;16.720;2023-11-19T09:13:35;23.17;;;12.20;;
41514;SDS011;27247;48.020;16.720;2023-11-19T09:17:47;20.83;;;11.75;;
41514;SDS011;27247;48.020;16.720;2023-11-19T09:21:57;17.80;;;10.95;;
41514;SDS011;27247;48.020;16.720;2023-11-19T09:26:09;19.80;;;11.70;;
41514;SDS011;27247;48.020;16.720;2023-11-19T09:30:22;20.20;;;11.38;;
41514;SDS011;27247;48.020;16.720;2023-11-19T09:34:33;21.08;;;11.38;;
41514;SDS011;27247;48.020;16.720;2023-11-19T09:38:44;23.90;;;11.50;;
41514;SDS011;27247;48.020;16.720;2023-11-19T09:42:56;16.45;;;10.93;;
41514;SDS011;27247;48.020;16.720;2023-11-19T09:47:06;21.85;;;11.45;;
41514;SDS011;27247;48.020;16.720;2023-11-19T09:51:18;20.38;;;11.27;;
41514;SDS011;27247;48.020;16.720;2023-11-19T09:55:28;16.83;;;10.55;;
41514;SDS011;27247;48.020;16.720;2023-11-19T09:59:40;18.70;;;10.57;;
41514;SDS011;27247;48.020;16.720;2023-11-19T10:03:50;19.48;;;11.60;;
41514;SDS011;27247;48.020;16.720;2023-11-19T10:08:04;18.88;;;10.15;;
41514;SDS011;27247;48.020;16.720;2023-11-19T10:12:15;19.52;;;11.07;;
41514;SDS011;27247;48.020;16.720;2023-11-19T10:16:29;21.58;;;11.90;;
41514;SDS011;27247;48.020;16.720;2023-11-19T10:20:41;18.25;;;11.15;;
41514;SDS011;27247;48.020;16.720;2023-11-19T10:24:53;18.52;;;10.25;;
41514;SDS011;27247;48.020;16.720;2023-11-19T10:29:03;18.40;;;10.73;;
41514;SDS011;27247;48.020;16.720;2023-11-19T10:33:14;18.25;;;11.32;;
41514;SDS011;27247;48.020;16.720;2023-11-19T10:37:29;20.50;;;10.70;;
41514;SDS011;27247;48.020;16.720;2023-11-19T10:41:45;18.35;;;11.45;;
41514;SDS011;27247;48.020;16.720;2023-11-19T10:45:59;16.80;;;10.43;;
41514;SDS011;27247;48.020;16.720;2023-11-19T10:50:19;16.73;;;10.38;;
41514;SDS011;27247;48.020;16.720;2023-11-19T10:54:31;21.33;;;12.15;;
41514;SDS011;27247;48.020;16.720;2023-11-19T10:58:44;17.90;;;10.52;;
41514;SDS011;27247;48.020;16.720;2023-11-19T11:02:56;23.20;;;11.38;;
41514;SDS011;27247;48.020;16.720;2023-11-19T11:07:11;22.95;;;12.15;;
41514;SDS011;27247;48.020;16.720;2023-11-19T11:11:22;20.75;;;11.90;;
41514;SDS011;27247;48.020;16.720;2023-11-19T11:15:33;18.10;;;11.15;;
41514;SDS011;27247;48.020;16.720;2023-11-19T11:19:44;22.00;;;11.25;;
41514;SDS011;27247;48.020;16.720;2023-11-19T11:28:28;21.02;;;11.68;;
41514;SDS011;27247;48.020;16.720;2023-11-19T11:32:43;19.98;;;11.73;;
41514;SDS011;27247;48.020;16.720;2023-11-19T11:37:10;20.65;;;12.40;;
41514;SDS011;27247;48.020;16.720;2023-11-19T11:41:30;23.73;;;12.27;;
41514;SDS011;27247;48.020;16.720;2023-11-19T11:45:41;23.40;;;13.20;;
41514;SDS011;27247;48.020;16.720;2023-11-19T11:49:53;22.63;;;12.60;;
41514;SDS011;27247;48.020;16.720;2023-11-19T11:54:03;19.67;;;11.73;;
41514;SDS011;27247;48.020;16.720;2023-11-19T11:58:17;20.15;;;11.18;;
41514;SDS011;27247;48.020;16.720;2023-11-19T12:02:37;21.70;;;11.20;;
41514;SDS011;27247;48.020;16.720;2023-11-19T12:07:02;20.45;;;12.18;;
41514;SDS011;27247;48.020;16.720;2023-11-19T12:11:14;25.25;;;12.02;;
41514;SDS011;27247;48.020;16.720;2023-11-19T12:15:26;20.80;;;11.95;;
41514;SDS011;27247;48.020;16.720;2023-11-19T12:19:40;21.80;;;13.27;;
41514;SDS011;27247;48.020;16.720;2023-11-19T12:23:51;20.10;;;11.50;;
41514;SDS011;27247;48.020;16.720;2023-11-19T12:28:04;22.40;;;12.75;;
41514;SDS011;27247;48.020;16.720;2023-11-19T12:32:14;19.92;;;11.73;;
41514;SDS011;27247;48.020;16.720;2023-11-19T12:36:24;23.98;;;13.27;;
41514;SDS011;27247;48.020;16.720;2023-11-19T12:40:35;21.30;;;12.23;;
41514;SDS011;27247;48.020;16.720;2023-11-19T12:44:54;24.60;;;13.75;;
41514;SDS011;27247;48.020;16.720;2023-11-19T12:49:06;21.70;;;12.85;;
41514;SDS011;27247;48.020;16.720;2023-11-19T12:53:16;22.33;;;11.75;;
41514;SDS011;27247;48.020;16.720;2023-11-19T12:57:42;23.55;;;13.43;;
41514;SDS011;27247;48.020;16.720;2023-11-19T13:01:56;25.13;;;13.40;;
41514;SDS011;27247;48.020;16.720;2023-11-19T13:06:10;25.50;;;13.15;;
41514;SDS011;27247;48.020;16.720;2023-11-19T13:10:22;24.08;;;13.18;;
41514;SDS011;27247;48.020;16.720;2023-11-19T13:14:36;24.17;;;13.70;;
41514;SDS011;27247;48.020;16.720;2023-11-19T13:18:52;21.85;;;13.57;;
41514;SDS011;27247;48.020;16.720;2023-11-19T13:23:03;22.65;;;13.60;;
41514;SDS011;27247;48.020;16.720;2023-11-19T13:27:14;26.15;;;15.68;;
41514;SDS011;27247;48.020;16.720;2023-11-19T13:31:25;25.33;;;14.83;;
41514;SDS011;27247;48.020;16.720;2023-11-19T13:35:35;24.58;;;14.90;;
41514;SDS011;27247;48.020;16.720;2023-11-19T13:39:46;27.10;;;15.40;;
41514;SDS011;27247;48.020;16.720;2023-11-19T13:43:57;25.95;;;13.93;;
41514;SDS011;27247;48.020;16.720;2023-11-19T13:48:07;24.38;;;13.88;;
41514;SDS011;27247;48.020;16.720;2023-11-19T13:52:17;26.23;;;14.40;;
41514;SDS011;27247;48.020;16.720;2023-11-19T13:56:28;30.70;;;15.37;;
41514;SDS011;27247;48.020;16.720;2023-11-19T14:00:38;25.43;;;14.47;;
41514;SDS011;27247;48.020;16.720;2023-11-19T14:04:48;26.43;;;15.03;;
41514;SDS011;27247;48.020;16.720;2023-11-19T14:08:58;26.40;;;14.70;;
41514;SDS011;27247;48.020;16.720;2023-11-19T14:13:09;23.73;;;13.75;;
41514;SDS011;27247;48.020;16.720;2023-11-19T14:17:19;24.38;;;12.98;;
41514;SDS011;27247;48.020;16.720;2023-11-19T14:21:30;21.85;;;13.98;;
41514;SDS011;27247;48.020;16.720;2023-11-19T14:25:40;22.92;;;13.73;;
41514;SDS011;27247;48.020;16.720;2023-11-19T14:29:51;22.10;;;13.77;;
41514;SDS011;27247;48.020;16.720;2023-11-19T14:34:02;21.35;;;12.68;;
41514;SDS011;27247;48.020;16.720;2023-11-19T14:38:12;20.20;;;11.88;;
41514;SDS011;27247;48.020;16.720;2023-11-19T14:42:22;20.50;;;12.88;;
41514;SDS011;27247;48.020;16.720;2023-11-19T14:46:33;27.15;;;13.35;;
41514;SDS011;27247;48.020;16.720;2023-11-19T14:50:43;21.90;;;13.40;;
41514;SDS011;27247;48.020;16.720;2023-11-19T14:54:56;27.17;;;15.55;;
41514;SDS011;27247;48.020;16.720;2023-11-19T14:59:07;24.95;;;14.55;;
41514;SDS011;27247;48.020;16.720;2023-11-19T15:03:17;23.77;;;13.97;;
41514;SDS011;27247;48.020;16.720;2023-11-19T15:07:29;26.60;;;14.85;;
41514;SDS011;27247;48.020;16.720;2023-11-19T15:11:39;22.40;;;13.37;;
41514;SDS011;27247;48.020;16.720;2023-11-19T15:15:49;24.07;;;15.33;;
41514;SDS011;27247;48.020;16.720;2023-11-19T15:20:00;24.40;;;12.63;;
41514;SDS011;27247;48.020;16.720;2023-11-19T15:24:11;24.70;;;14.10;;
41514;SDS011;27247;48.020;16.720;2023-11-19T15:28:22;29.58;;;15.63;;
41514;SDS011;27247;48.020;16.720;2023-11-19T15:32:32;25.33;;;14.97;;
41514;SDS011;27247;48.020;16.720;2023-11-19T15:36:42;24.05;;;15.07;;
41514;SDS011;27247;48.020;16.720;2023-11-19T15:40:53;26.10;;;15.98;;
41514;SDS011;27247;48.020;16.720;2023-11-19T15:45:03;28.00;;;15.80;;
41514;SDS011;27247;48.020;16.720;2023-11-19T15:49:15;30.08;;;15.85;;
41514;SDS011;27247;48.020;16.720;2023-11-19T15:53:26;24.65;;;15.50;;
41514;SDS011;27247;48.020;16.720;2023-11-19T15:57:36;26.35;;;15.77;;
41514;SDS011;27247;48.020;16.720;2023-11-19T16:01:47;29.20;;;16.17;;
41514;SDS011;27247;48.020;16.720;2023-11-19T16:05:57;27.35;;;15.98;;
41514;SDS011;27247;48.020;16.720;2023-11-19T16:10:08;29.73;;;16.63;;
41514;SDS011;27247;48.020;16.720;2023-11-19T16:14:19;24.23;;;13.88;;
41514;SDS011;27247;48.020;16.720;2023-11-19T16:18:29;25.70;;;13.67;;
41514;SDS011;27247;48.020;16.720;2023-11-19T16:22:40;26.90;;;15.40;;
41514;SDS011;27247;48.020;16.720;2023-11-19T16:26:54;27.40;;;16.40;;
41514;SDS011;27247;48.020;16.720;2023-11-19T16:31:06;28.07;;;16.53;;
41514;SDS011;27247;48.020;16.720;2023-11-19T16:35:16;27.27;;;15.02;;
41514;SDS011;27247;48.020;16.720;2023-11-19T16:39:27;25.40;;;13.52;;
41514;SDS011;27247;48.020;16.720;2023-11-19T16:43:38;26.00;;;14.20;;
41514;SDS011;27247;48.020;16.720;2023-11-19T16:47:48;25.57;;;14.70;;
41514;SDS011;27247;48.020;16.720;2023-11-19T16:51:59;27.45;;;14.90;;
41514;SDS011;27247;48.020;16.720;2023-11-19T16:56:09;30.05;;;15.85;;
41514;SDS011;27247;48.020;16.720;2023-11-19T17:00:20;33.92;;;16.90;;
41514;SDS011;27247;48.020;16.720;2023-11-19T17:04:31;26.52;;;13.98;;
41514;SDS011;27247;48.020;16.720;2023-11-19T17:08:41;31.70;;;15.30;;
41514;SDS011;27247;48.020;16.720;2023-11-19T17:12:52;26.98;;;15.13;;
41514;SDS011;27247;48.020;16.720;2023-11-19T17:17:03;30.13;;;15.23;;
41514;SDS011;27247;48.020;16.720;2023-11-19T17:21:13;29.95;;;15.35;;
41514;SDS011;27247;48.020;16.720;2023-11-19T17:25:23;30.13;;;16.77;;
41514;SDS011;27247;48.020;16.720;2023-11-19T17:29:34;27.63;;;15.73;;
41514;SDS011;27247;48.020;16.720;2023-11-19T17:33:44;29.15;;;16.65;;
41514;SDS011;27247;48.020;16.720;2023-11-19T17:37:55;31.13;;;16.75;;
41514;SDS011;27247;48.020;16.720;2023-11-19T17:42:05;33.35;;;17.48;;
41514;SDS011;27247;48.020;16.720;2023-11-19T17:46:16;35.85;;;17.77;;
41514;SDS011;27247;48.020;16.720;2023-11-19T17:50:26;36.10;;;19.52;;
41514;SDS011;27247;48.020;16.720;2023-11-19T17:54:39;33.75;;;20.13;;
41514;SDS011;27247;48.020;16.720;2023-11-19T17:58:49;39.75;;;21.15;;
41514;SDS011;27247;48.020;16.720;2023-11-19T18:02:59;37.08;;;21.00;;
41514;SDS011;27247;48.020;16.720;2023-11-19T18:07:10;32.55;;;18.70;;
41514;SDS011;27247;48.020;16.720;2023-11-19T18:11:20;36.17;;;20.38;;
41514;SDS011;27247;48.020;16.720;2023-11-19T18:15:32;40.22;;;21.23;;
41514;SDS011;27247;48.020;16.720;2023-11-19T18:19:44;36.65;;;21.42;;
41514;SDS011;27247;48.020;16.720;2023-11-19T18:23:54;41.40;;;22.73;;
41514;SDS011;27247;48.020;16.720;2023-11-19T18:28:04;39.63;;;22.47;;
41514;SDS011;27247;48.020;16.720;2023-11-19T18:32:16;47.70;;;25.55;;
41514;SDS011;27247;48.020;16.720;2023-11-19T18:36:33;48.63;;;25.05;;
41514;SDS011;27247;48.020;16.720;2023-11-19T18:40:45;51.17;;;22.87;;
41514;SDS011;27247;48.020;16.720;2023-11-19T18:44:56;43.20;;;21.52;;
41514;SDS011;27247;48.020;16.720;2023-11-19T18:49:08;38.63;;;20.08;;
41514;SDS011;27247;48.020;16.720;2023-11-19T18:53:19;39.33;;;19.40;;
41514;SDS011;27247;48.020;16.720;2023-11-19T18:57:31;35.22;;;19.63;;
41514;SDS011;27247;48.020;16.720;2023-11-19T19:01:42;38.67;;;20.17;;
41514;SDS011;27247;48.020;16.720;2023-11-19T19:05:55;43.10;;;21.35;;
41514;SDS011;27247;48.020;16.720;2023-11-19T19:10:06;41.85;;;20.83;;
41514;SDS011;27247;48.020;16.720;2023-11-19T19:14:18;55.55;;;23.95;;
41514;SDS011;27247;48.020;16.720;2023-11-19T19:18:29;63.92;;;22.10;;
41514;SDS011;27247;48.020;16.720;2023-11-19T19:22:40;56.78;;;23.00;;
41514;SDS011;27247;48.020;16.720;2023-11-19T19:26:52;63.88;;;23.23;;
41514;SDS011;27247;48.020;16.720;2023-11-19T19:31:04;52.30;;;23.73;;
41514;SDS011;27247;48.020;16.720;2023-11-19T19:35:15;68.82;;;24.25;;
41514;SDS011;27247;48.020;16.720;2023-11-19T19:39:26;42.78;;;21.92;;
41514;SDS011;27247;48.020;16.720;2023-11-19T19:43:38;48.75;;;23.50;;
41514;SDS011;27247;48.020;16.720;2023-11-19T19:47:50;48.70;;;24.42;;
41514;SDS011;27247;48.020;16.720;2023-11-19T19:52:00;56.07;;;27.03;;
41514;SDS011;27247;48.020;16.720;2023-11-19T19:56:11;59.30;;;25.85;;
41514;SDS011;27247;48.020;16.720;2023-11-19T20:00:21;55.60;;;25.95;;
41514;SDS011;27247;48.020;16.720;2023-11-19T20:04:32;62.10;;;28.55;;
41514;SDS011;27247;48.020;16.720;2023-11-19T20:08:42;61.58;;;28.83;;
41514;SDS011;27247;48.020;16.720;2023-11-19T20:12:53;51.33;;;25.93;;
41514;SDS011;27247;48.020;16.720;2023-11-19T20:17:03;51.10;;;25.90;;
41514;SDS011;27247;48.020;16.720;2023-11-19T20:21:14;60.97;;;27.40;;
41514;SDS011;27247;48.020;16.720;2023-11-19T20:25:24;54.92;;;25.70;;
41514;SDS011;27247;48.020;16.720;2023-11-19T20:29:34;59.88;;;29.75;;
41514;SDS011;27247;48.020;16.720;2023-11-19T20:33:45;65.10;;;27.47;;
41514;SDS011;27247;48.020;16.720;2023-11-19T20:37:55;66.60;;;28.97;;
41514;SDS011;27247;48.020;16.720;2023-11-19T20:42:05;62.60;;;26.80;;
41514;SDS011;27247;48.020;16.720;2023-11-19T20:46:16;60.60;;;24.40;;
41514;SDS011;27247;48.020;16.720;2023-11-19T20:50:26;63.10;;;27.60;;
41514;SDS011;27247;48.020;16.720;2023-11-19T20:54:37;57.03;;;28.35;;
41514;SDS011;27247;48.020;16.720;2023-11-19T20:58:48;72.35;;;29.52;;
41514;SDS011;27247;48.020;16.720;2023-11-19T21:02:58;66.17;;;26.00;;
41514;SDS011;27247;48.020;16.720;2023-11-19T21:07:09;57.00;;;25.52;;
41514;SDS011;27247;48.020;16.720;2023-11-19T21:11:19;66.32;;;27.90;;
41514;SDS011;27247;48.020;16.720;2023-11-19T21:15:30;69.80;;;28.08;;
41514;SDS011;27247;48.020;16.720;2023-11-19T21:19:40;78.32;;;28.88;;
41514;SDS011;27247;48.020;16.720;2023-11-19T21:23:52;69.20;;;24.58;;
41514;SDS011;27247;48.020;16.720;2023-11-19T21:28:02;64.97;;;26.13;;
41514;SDS011;27247;48.020;16.720;2023-11-19T21:32:13;65.07;;;27.27;;
41514;SDS011;27247;48.020;16.720;2023-11-19T21:36:23;70.78;;;27.25;;
41514;SDS011;27247;48.020;16.720;2023-11-19T21:40:34;81.50;;;27.73;;
41514;SDS011;27247;48.020;16.720;2023-11-19T21:44:44;58.10;;;23.83;;
41514;SDS011;27247;48.020;16.720;2023-11-19T21:48:55;52.73;;;24.47;;
41514;SDS011;27247;48.020;16.720;2023-11-19T21:53:05;57.00;;;25.90;;
41514;SDS011;27247;48.020;16.720;2023-11-19T21:57:15;64.32;;;27.17;;
41514;SDS011;27247;48.020;16.720;2023-11-19T22:01:26;61.08;;;26.17;;
41514;SDS011;27247;48.020;16.720;2023-11-19T22:05:36;54.38;;;24.73;;
41514;SDS011;27247;48.020;16.720;2023-11-19T22:09:47;85.68;;;27.88;;
41514;SDS011;27247;48.020;16.720;2023-11-19T22:13:57;110.55;;;28.42;;
41514;SDS011;27247;48.020;16.720;2023-11-19T22:18:07;50.20;;;25.43;;
41514;SDS011;27247;48.020;16.720;2023-11-19T22:22:20;90.90;;;27.50;;
41514;SDS011;27247;48.020;16.720;2023-11-19T22:26:30;48.40;;;24.17;;
41514;SDS011;27247;48.020;16.720;2023-11-19T22:30:40;61.43;;;24.37;;
41514;SDS011;27247;48.020;16.720;2023-11-19T22:34:51;55.05;;;26.95;;
41514;SDS011;27247;48.020;16.720;2023-11-19T22:39:02;51.08;;;25.13;;
41514;SDS011;27247;48.020;16.720;2023-11-19T22:43:13;65.25;;;24.15;;
41514;SDS011;27247;48.020;16.720;2023-11-19T22:47:23;46.33;;;22.57;;
41514;SDS011;27247;48.020;16.720;2023-11-19T22:51:33;64.55;;;26.35;;
41514;SDS011;27247;48.020;16.720;2023-11-19T22:55:45;93.13;;;29.25;;
41514;SDS011;27247;48.020;16.720;2023-11-19T22:59:55;72.68;;;26.50;;
41514;SDS011;27247;48.020;16.720;2023-11-19T23:04:06;53.45;;;26.90;;
41514;SDS011;27247;48.020;16.720;2023-11-19T23:08:20;50.28;;;24.20;;
41514;SDS011;27247;48.020;16.720;2023-11-19T23:12:30;71.23;;;27.97;;
41514;SDS011;27247;48.020;16.720;2023-11-19T23:16:41;66.05;;;26.92;;
41514;SDS011;27247;48.020;16.720;2023-11-19T23:20:51;59.15;;;24.98;;
41514;SDS011;27247;48.020;16.720;2023-11-19T23:25:02;54.53;;;25.98;;
41514;SDS011;27247;48.020;16.720;2023-11-19T23:29:13;54.28;;;25.15;;
41514;SDS011;27247;48.020;16.720;2023-11-19T23:33:24;46.25;;;22.45;;
41514;SDS011;27247;48.020;16.720;2023-11-19T23:37:35;52.33;;;24.90;;
41514;SDS011;27247;48.020;16.720;2023-11-19T23:41:50;47.30;;;23.33;;
41514;SDS011;27247;48.020;16.720;2023-11-19T23:46:01;48.90;;;24.20;;
41514;SDS011;27247;48.020;16.720;2023-11-19T23:50:13;51.72;;;24.02;;
41514;SDS011;27247;48.020;16.720;2023-11-19T23:54:23;46.60;;;23.83;;
41514;SDS011;27247;48.020;16.720;2023-11-19T23:58:33;48.67;;;23.80;;
